Cheyenne — 9HAK5 — position and weather

sailwx.info

Track history (hours):
 
Tides and Currents Weather Stations Pressure Air Temp Water Temp Dewpoint Dewpoint Depression Visibility Wind Speed Wind Dir Waves Ship Positions

Cheyenne

Last reported at 2017-Dec-14 18:28 UTC. Time now 2017-Dec-15 18:05 UTC.
Position N 40°59' E 028°55'.

Length 133 m; draft 3.8 m.

Type: Ship. MMSI: 249607000.

Date/timePositionNaut miles runAvg speedWind from/ knotsBaromVisibWave heightAir tempDewpointWater temp
2017-Dec-14 18:28N 40°59' E 028°55'0 0.0
2017-Dec-14 02:58N 40°59' E 028°55'0 0.0
2017-Dec-14 02:29N 40°59' E 028°55'0 0.0
2017-Dec-14 01:54N 40°59' E 028°55'0 0.0
2017-Dec-14 01:25N 40°59' E 028°55'0 0.0
2017-Dec-14 00:50N 40°59' E 028°55'0 0.0
2017-Dec-14 00:09N 40°59' E 028°55'0 0.1
2017-Dec-14 00:00N 40°59' E 028°55'0 0.0
2017-Dec-13 22:18N 40°59' E 028°55'0 0.0
2017-Dec-12 19:10N 40°59' E 028°55'1 3.1
2017-Dec-12 18:54N 40°59' E 028°56'  
2017-Dec-08 19:35N 45°12' E 036°28'1 7.3
2017-Dec-08 19:30N 45°13' E 036°28'3 7.1
2017-Dec-08 19:00N 45°16' E 036°28'3 6.2
2017-Dec-08 18:30N 45°19' E 036°31'4 7.1
2017-Dec-08 18:00N 45°20' E 036°36'3 6.7
2017-Dec-08 17:30N 45°22' E 036°40'3 6.9
2017-Dec-08 17:00N 45°25' E 036°40'3 6.0
2017-Dec-08 16:30N 45°28' E 036°38'0 0.2
2017-Dec-08 15:59N 45°28' E 036°38'0 0.0
2017-Dec-08 15:29N 45°28' E 036°38'0 0.0
2017-Dec-08 14:57N 45°28' E 036°38'0 0.0
2017-Dec-08 14:29N 45°28' E 036°38'0 0.0
2017-Dec-08 13:59N 45°28' E 036°38'0 0.0
2017-Dec-08 13:29N 45°28' E 036°38'0 0.0
2017-Dec-08 12:59N 45°28' E 036°38'0 0.0
2017-Dec-08 12:30N 45°28' E 036°38'0 0.0
2017-Dec-08 11:59N 45°28' E 036°38'0 0.0
2017-Dec-08 11:29N 45°28' E 036°38'0 0.0
2017-Dec-08 10:59N 45°28' E 036°38'0 0.0
2017-Dec-08 10:29N 45°28' E 036°38'0 0.0
2017-Dec-08 09:59N 45°28' E 036°38'0 0.0
2017-Dec-08 09:30N 45°28' E 036°38'0 0.0
2017-Dec-08 09:00N 45°28' E 036°38'0 0.0
2017-Dec-08 08:26N 45°28' E 036°38'0 0.0
2017-Dec-08 07:59N 45°28' E 036°38'0 0.0
2017-Dec-08 07:29N 45°28' E 036°38'0 0.0
2017-Dec-08 06:59N 45°28' E 036°38'0 0.0
2017-Dec-08 06:29N 45°28' E 036°38'0 0.0
2017-Dec-08 05:56N 45°28' E 036°38'0 0.0
2017-Dec-08 05:29N 45°28' E 036°38'0 0.0
2017-Dec-08 04:59N 45°28' E 036°38'0 0.0
2017-Dec-08 04:30N 45°28' E 036°38'0 0.0
2017-Dec-08 03:59N 45°28' E 036°38'0 0.0
2017-Dec-08 03:29N 45°28' E 036°38'0 0.0
2017-Dec-08 02:59N 45°28' E 036°38'0 0.0
2017-Dec-08 02:29N 45°28' E 036°38'0 0.0
2017-Dec-08 01:56N 45°28' E 036°38'0 0.0
2017-Dec-08 01:30N 45°28' E 036°38'0 0.0
2017-Dec-08 00:59N 45°28' E 036°38'0 0.1
2017-Dec-08 00:30N 45°28' E 036°38'2 4.2
2017-Dec-08 00:01N 45°27' E 036°40'  
Track history (hours):
 
Tides and Currents Weather Stations Pressure Air Temp Water Temp Dewpoint Dewpoint Depression Visibility Wind Speed Wind Dir Waves Ship Positions

Cheyenne

Last reported at 2017-Dec-14 18:28 UTC. Time now 2017-Dec-15 18:05 UTC.
Position N 40°59' E 028°55'.

Length 133 m; draft 3.8 m.

Type: Ship. MMSI: 249607000.

Date/timePositionNaut miles runAvg speedWind from/ knotsBaromVisibWave heightAir tempDewpointWater temp
2017-Dec-14 18:28N 40°59' E 028°55'0 0.0
2017-Dec-14 02:58N 40°59' E 028°55'0 0.0
2017-Dec-14 02:29N 40°59' E 028°55'0 0.0
2017-Dec-14 01:54N 40°59' E 028°55'0 0.0
2017-Dec-14 01:25N 40°59' E 028°55'0 0.0
2017-Dec-14 00:50N 40°59' E 028°55'0 0.0
2017-Dec-14 00:09N 40°59' E 028°55'0 0.1
2017-Dec-14 00:00N 40°59' E 028°55'0 0.0
2017-Dec-13 22:18N 40°59' E 028°55'0 0.0
2017-Dec-12 19:10N 40°59' E 028°55'1 3.1
2017-Dec-12 18:54N 40°59' E 028°56'  
2017-Dec-08 19:35N 45°12' E 036°28'1 7.3
2017-Dec-08 19:30N 45°13' E 036°28'3 7.1
2017-Dec-08 19:00N 45°16' E 036°28'3 6.2
2017-Dec-08 18:30N 45°19' E 036°31'4 7.1
2017-Dec-08 18:00N 45°20' E 036°36'3 6.7
2017-Dec-08 17:30N 45°22' E 036°40'3 6.9
2017-Dec-08 17:00N 45°25' E 036°40'3 6.0
2017-Dec-08 16:30N 45°28' E 036°38'0 0.2
2017-Dec-08 15:59N 45°28' E 036°38'0 0.0
2017-Dec-08 15:29N 45°28' E 036°38'0 0.0
2017-Dec-08 14:57N 45°28' E 036°38'0 0.0
2017-Dec-08 14:29N 45°28' E 036°38'0 0.0
2017-Dec-08 13:59N 45°28' E 036°38'0 0.0
2017-Dec-08 13:29N 45°28' E 036°38'0 0.0
2017-Dec-08 12:59N 45°28' E 036°38'0 0.0
2017-Dec-08 12:30N 45°28' E 036°38'0 0.0
2017-Dec-08 11:59N 45°28' E 036°38'0 0.0
2017-Dec-08 11:29N 45°28' E 036°38'0 0.0
2017-Dec-08 10:59N 45°28' E 036°38'0 0.0
2017-Dec-08 10:29N 45°28' E 036°38'0 0.0
2017-Dec-08 09:59N 45°28' E 036°38'0 0.0
2017-Dec-08 09:30N 45°28' E 036°38'0 0.0
2017-Dec-08 09:00N 45°28' E 036°38'0 0.0
2017-Dec-08 08:26N 45°28' E 036°38'0 0.0
2017-Dec-08 07:59N 45°28' E 036°38'0 0.0
2017-Dec-08 07:29N 45°28' E 036°38'0 0.0
2017-Dec-08 06:59N 45°28' E 036°38'0 0.0
2017-Dec-08 06:29N 45°28' E 036°38'0 0.0
2017-Dec-08 05:56N 45°28' E 036°38'0 0.0
2017-Dec-08 05:29N 45°28' E 036°38'0 0.0
2017-Dec-08 04:59N 45°28' E 036°38'0 0.0
2017-Dec-08 04:30N 45°28' E 036°38'0 0.0
2017-Dec-08 03:59N 45°28' E 036°38'0 0.0
2017-Dec-08 03:29N 45°28' E 036°38'0 0.0
2017-Dec-08 02:59N 45°28' E 036°38'0 0.0
2017-Dec-08 02:29N 45°28' E 036°38'0 0.0
2017-Dec-08 01:56N 45°28' E 036°38'0 0.0
2017-Dec-08 01:30N 45°28' E 036°38'0 0.0
2017-Dec-08 00:59N 45°28' E 036°38'0 0.1
2017-Dec-08 00:30N 45°28' E 036°38'2 4.2
2017-Dec-08 00:01N 45°27' E 036°40'  

Dump ship's entire track history